Terminal Aerodrome Forecast
Issued by NWS

Home | Current Version | Previous Version | Text Only | Print | Product List | Glossary On
Versions: 1 2 3 4 5 6 7 8 9 10 11 12 13 14 15 16 17 18 19
653
FTUS43 KDTX 231130
TAFDET
TAF
KDET 231130Z 2312/2412 23012KT 6SM BR BKN022
     FM231400 26008KT P6SM SCT018
     FM231600 31006KT P6SM SCT150
     FM232200 01006KT P6SM SCT035 BKN150
     FM240200 03008KT 6SM BR BKN015 OVC040
     FM240600 03007KT 3SM -SHRA BR BKN008 OVC022=

USA.gov is the U.S. government's official web portal to all federal, state and local government web resources and services.